Time;durP1;ratioP1;P1;durP2;ratioP2;P2;SDS_P1;SDS_P2;PMS_P1;PMS_P2;Temp;Humidity;BMP_temperature;BMP_pressure;BME280_temperature;BME280_humidity;BME280_pressure;Samples;Min_cycle;Max_cycle;Signal;HPM_P1;HPM_P2
2023/10/28 00:01:15;;;;;;;0.20;0.20;;;12.80;99.90;;;;;;7392859;19;20142;-79
2023/10/28 00:03:41;;;;;;;0.23;0.23;;;12.90;99.90;;;;;;7388990;19;20126;-79
2023/10/28 00:06:07;;;;;;;0.30;0.30;;;12.70;99.90;;;;;;7390733;19;20156;-79
2023/10/28 00:08:34;;;;;;;0.20;0.20;;;12.90;99.90;;;;;;7380342;19;20599;-79
2023/10/28 00:11:00;;;;;;;0.30;0.30;;;12.90;99.90;;;;;;7385861;19;20146;-79
2023/10/28 00:13:26;;;;;;;0.27;0.27;;;12.80;99.90;;;;;;7384198;19;20150;-79
2023/10/28 00:15:52;;;;;;;0.40;0.40;;;12.90;99.90;;;;;;7388714;19;20158;-78
2023/10/28 00:18:18;;;;;;;0.83;0.40;;;12.70;99.90;;;;;;7387399;19;20146;-79
2023/10/28 00:20:47;;;;;;;0.20;0.20;;;12.60;99.90;;;;;;7386568;19;20170;-78
2023/10/28 00:23:14;;;;;;;0.77;0.33;;;12.70;99.90;;;;;;7389748;19;20150;-77
2023/10/28 00:25:40;;;;;;;0.20;0.20;;;12.80;99.90;;;;;;7386036;19;20151;-78
2023/10/28 00:28:06;;;;;;;1.23;0.40;;;13.00;99.90;;;;;;7388880;19;20550;-77
2023/10/28 00:30:33;;;;;;;0.30;0.30;;;13.00;99.90;;;;;;7389478;19;20139;-79
2023/10/28 00:32:59;;;;;;;0.10;0.10;;;13.00;99.90;;;;;;7390230;19;20259;-78
2023/10/28 00:35:28;;;;;;;0.83;0.30;;;13.10;99.90;;;;;;7385017;19;20792;-78
2023/10/28 00:37:54;;;;;;;0.27;0.27;;;12.90;99.90;;;;;;7390619;19;20138;-79
2023/10/28 00:40:20;;;;;;;0.20;0.20;;;12.90;99.90;;;;;;7388016;19;20877;-80
2023/10/28 00:42:46;;;;;;;0.90;0.50;;;13.00;99.90;;;;;;7386687;19;20138;-79
2023/10/28 00:45:13;;;;;;;1.33;0.43;;;12.90;99.90;;;;;;7381208;19;20153;-79
2023/10/28 00:47:42;;;;;;;0.30;0.30;;;12.80;99.90;;;;;;7388754;19;20129;-78
2023/10/28 00:50:12;;;;;;;0.80;0.70;;;12.80;99.90;;;;;;7392019;19;20138;-78
2023/10/28 00:52:44;;;;;;;0.27;0.20;;;12.70;99.90;;;;;;7387365;19;20467;-78
2023/10/28 00:55:14;;;;;;;0.20;0.20;;;12.70;99.90;;;;;;7382212;19;20161;-79
2023/10/28 00:57:42;;;;;;;0.10;0.10;;;12.70;99.90;;;;;;7392177;19;20134;-78
2023/10/28 01:00:10;;;;;;;0.30;0.30;;;12.70;99.90;;;;;;7388895;19;20602;-79
2023/10/28 01:02:42;;;;;;;0.40;0.40;;;12.70;99.90;;;;;;7387697;19;20161;-77
2023/10/28 01:05:11;;;;;;;0.30;0.30;;;12.60;99.90;;;;;;7384329;19;20159;-78
2023/10/28 01:07:38;;;;;;;0.27;0.27;;;12.70;99.90;;;;;;7388282;19;20150;-78
2023/10/28 01:10:05;;;;;;;0.30;0.30;;;12.90;99.90;;;;;;7387026;19;21398;-78
2023/10/28 01:12:31;;;;;;;0.20;0.20;;;12.80;99.90;;;;;;7385144;19;20145;-79
2023/10/28 01:14:57;;;;;;;0.17;0.17;;;12.80;99.90;;;;;;7384344;19;20170;-79
2023/10/28 01:17:25;;;;;;;0.20;0.20;;;12.70;99.90;;;;;;7386795;19;20496;-78
2023/10/28 01:19:54;;;;;;;0.20;0.20;;;12.70;99.90;;;;;;7385570;19;20546;-79
2023/10/28 01:22:21;;;;;;;0.37;0.37;;;12.70;99.90;;;;;;7388029;19;20139;-79
2023/10/28 01:24:49;;;;;;;0.40;0.37;;;12.50;99.90;;;;;;7387273;19;20127;-79
2023/10/28 01:27:15;;;;;;;0.40;0.30;;;12.40;99.90;;;;;;7390223;19;20131;-79
2023/10/28 01:29:41;;;;;;;0.23;0.20;;;12.40;99.90;;;;;;7378288;19;20134;-80
2023/10/28 01:32:07;;;;;;;0.23;0.23;;;12.60;99.90;;;;;;7386171;19;20137;-79
2023/10/28 01:34:46;;;;;;;0.65;0.20;;;12.60;99.90;;;;;;7387282;19;20159;-78
2023/10/28 01:37:12;;;;;;;0.10;0.10;;;12.50;99.90;;;;;;7389533;19;20172;-79
2023/10/28 01:39:38;;;;;;;0.20;0.20;;;12.60;99.90;;;;;;7388313;19;20630;-79
2023/10/28 01:42:04;;;;;;;0.30;0.30;;;12.60;99.90;;;;;;7390377;19;20134;-79
2023/10/28 01:44:34;;;;;;;0.93;0.30;;;12.70;99.90;;;;;;7387321;19;20458;-77
2023/10/28 01:47:00;;;;;;;0.20;0.20;;;12.90;99.90;;;;;;7388262;19;20484;-79
2023/10/28 01:49:27;;;;;;;0.40;0.20;;;12.80;99.90;;;;;;7385108;19;20167;-79
2023/10/28 01:51:52;;;;;;;0.20;0.20;;;12.80;99.90;;;;;;7389716;19;20612;-78
2023/10/28 01:54:19;;;;;;;0.20;0.20;;;12.70;99.90;;;;;;7382474;19;20158;-80
2023/10/28 01:56:44;;;;;;;0.30;0.30;;;12.60;99.90;;;;;;7387324;19;20146;-79
2023/10/28 01:59:12;;;;;;;0.20;0.20;;;12.70;99.90;;;;;;7385092;19;20624;-78
2023/10/28 02:01:38;;;;;;;0.20;0.20;;;12.80;99.90;;;;;;7391722;19;20134;-78
2023/10/28 02:04:06;;;;;;;0.20;0.20;;;12.80;99.90;;;;;;7387108;19;20143;-78
2023/10/28 02:06:33;;;;;;;0.20;0.20;;;12.80;99.90;;;;;;7383218;19;20594;-78
2023/10/28 02:08:59;;;;;;;0.20;0.20;;;12.80;99.90;;;;;;7394368;19;20202;-78
2023/10/28 02:11:24;;;;;;;0.10;0.10;;;12.70;99.90;;;;;;7395209;19;20143;-78
2023/10/28 02:13:50;;;;;;;0.30;0.30;;;12.70;99.90;;;;;;7387689;19;20185;-78
2023/10/28 02:16:16;;;;;;;0.30;0.30;;;12.60;99.90;;;;;;7387773;19;20587;-77
2023/10/28 02:18:41;;;;;;;0.47;0.20;;;12.80;99.90;;;;;;7392822;19;20154;-78
2023/10/28 02:21:07;;;;;;;0.20;0.20;;;12.80;99.90;;;;;;7388038;19;20134;-79
2023/10/28 02:23:33;;;;;;;0.40;0.40;;;12.80;99.90;;;;;;7391727;19;20139;-78
2023/10/28 02:25:59;;;;;;;0.27;0.27;;;12.80;99.90;;;;;;7389831;19;20603;-78
2023/10/28 02:28:24;;;;;;;0.20;0.20;;;12.90;99.90;;;;;;7389757;19;20127;-78
2023/10/28 02:30:50;;;;;;;0.73;0.40;;;12.90;99.90;;;;;;7395333;19;20137;-78
2023/10/28 02:33:16;;;;;;;0.30;0.30;;;13.00;99.90;;;;;;7385148;19;20784;-78
2023/10/28 02:35:41;;;;;;;0.30;0.20;;;13.00;99.90;;;;;;7386105;19;20177;-79
2023/10/28 02:38:07;;;;;;;0.30;0.30;;;12.80;99.90;;;;;;7394644;19;20154;-78
2023/10/28 02:40:33;;;;;;;0.30;0.30;;;12.80;99.90;;;;;;7393151;19;20726;-81
2023/10/28 02:42:58;;;;;;;0.23;0.23;;;12.90;99.90;;;;;;7396798;19;20182;-80
2023/10/28 02:45:24;;;;;;;0.23;0.23;;;12.80;99.90;;;;;;7392185;19;20135;-79
2023/10/28 02:47:50;;;;;;;0.50;0.20;;;12.80;99.90;;;;;;7393111;19;20135;-81
2023/10/28 02:50:17;;;;;;;1.00;0.37;;;12.80;99.90;;;;;;7393508;19;20151;-79
2023/10/28 02:52:43;;;;;;;0.30;0.30;;;12.80;99.90;;;;;;7390944;19;20154;-79
2023/10/28 02:55:09;;;;;;;0.77;0.30;;;12.90;99.90;;;;;;7390195;19;20575;-78
2023/10/28 02:57:34;;;;;;;0.53;0.37;;;12.70;99.90;;;;;;7386712;19;20209;-79
2023/10/28 03:00:00;;;;;;;0.20;0.20;;;12.60;99.90;;;;;;7386889;19;20141;-80
2023/10/28 03:02:26;;;;;;;0.30;0.30;;;12.70;99.90;;;;;;7392051;19;20502;-80
2023/10/28 03:04:52;;;;;;;0.30;0.30;;;12.60;99.90;;;;;;7393761;19;20947;-80
2023/10/28 03:07:17;;;;;;;0.47;0.40;;;12.70;99.90;;;;;;7391400;19;20141;-79
2023/10/28 03:09:44;;;;;;;0.37;0.37;;;12.70;99.90;;;;;;7389270;19;20574;-79
2023/10/28 03:12:12;;;;;;;1.40;0.60;;;12.80;99.90;;;;;;7382193;19;20499;-80
2023/10/28 03:14:38;;;;;;;0.67;0.40;;;12.60;99.90;;;;;;7388309;19;20146;-79
2023/10/28 03:17:03;;;;;;;0.25;0.22;;;12.60;99.90;;;;;;7392075;19;20139;-80
2023/10/28 03:19:29;;;;;;;0.30;0.30;;;12.50;99.90;;;;;;7392905;19;20178;-80
2023/10/28 03:21:55;;;;;;;1.87;0.97;;;12.50;99.90;;;;;;7384032;19;20154;-79
2023/10/28 03:24:21;;;;;;;0.20;0.20;;;12.60;99.90;;;;;;7387360;19;20541;-79
2023/10/28 03:26:47;;;;;;;0.28;0.28;;;12.60;99.90;;;;;;7385168;19;20145;-79
2023/10/28 03:29:12;;;;;;;1.20;0.27;;;12.60;99.90;;;;;;7393044;19;20130;-80
2023/10/28 03:31:38;;;;;;;0.53;0.23;;;12.70;99.90;;;;;;7387488;19;20194;-79
2023/10/28 03:34:05;;;;;;;0.30;0.30;;;12.70;99.90;;;;;;7385397;19;20130;-80
2023/10/28 03:36:31;;;;;;;0.70;0.30;;;12.60;99.90;;;;;;7390990;19;20241;-81
2023/10/28 03:38:57;;;;;;;0.30;0.30;;;12.50;99.90;;;;;;7391268;19;20762;-79
2023/10/28 03:41:23;;;;;;;0.40;0.40;;;12.60;99.90;;;;;;7392064;19;20130;-79
2023/10/28 03:43:49;;;;;;;0.20;0.20;;;12.70;99.90;;;;;;7382794;19;20150;-79
2023/10/28 03:46:18;;;;;;;0.63;0.63;;;12.50;99.90;;;;;;7385322;19;20170;-80
2023/10/28 03:48:44;;;;;;;0.50;0.50;;;12.60;99.90;;;;;;7391922;19;20142;-80
2023/10/28 03:51:10;;;;;;;0.30;0.30;;;12.60;99.90;;;;;;7385639;19;20168;-80
2023/10/28 03:53:35;;;;;;;0.30;0.30;;;12.80;99.90;;;;;;7390759;19;20138;-79
2023/10/28 03:56:01;;;;;;;0.20;0.20;;;12.70;99.90;;;;;;7388386;19;20706;-79
2023/10/28 03:58:27;;;;;;;0.93;0.30;;;12.60;99.90;;;;;;7388778;19;20127;-79
2023/10/28 04:00:53;;;;;;;1.90;0.70;;;12.70;99.90;;;;;;7392402;19;20553;-79
2023/10/28 04:03:23;;;;;;;0.33;0.30;;;12.80;99.90;;;;;;7389102;19;20158;-79
2023/10/28 04:05:49;;;;;;;1.33;0.80;;;12.50;99.90;;;;;;7390428;19;20150;-78
2023/10/28 04:08:16;;;;;;;0.50;0.50;;;12.70;99.90;;;;;;7393710;19;20127;-80
2023/10/28 04:10:42;;;;;;;0.47;0.40;;;12.70;99.90;;;;;;7386999;19;20142;-79
2023/10/28 04:13:08;;;;;;;0.30;0.30;;;12.80;99.90;;;;;;7392898;19;20139;-79
2023/10/28 04:15:36;;;;;;;0.47;0.40;;;12.90;99.90;;;;;;7386589;19;20165;-79
2023/10/28 04:18:02;;;;;;;0.37;0.37;;;12.90;99.90;;;;;;7378094;19;20138;-79
2023/10/28 04:20:28;;;;;;;0.47;0.47;;;12.80;99.90;;;;;;7387518;19;20202;-78
2023/10/28 04:22:54;;;;;;;0.40;0.40;;;12.60;99.90;;;;;;7387698;19;20560;-80
2023/10/28 04:25:19;;;;;;;0.37;0.37;;;12.70;99.90;;;;;;7382039;19;20135;-80
2023/10/28 04:27:45;;;;;;;0.30;0.30;;;12.80;99.90;;;;;;7383072;19;20126;-79
2023/10/28 04:30:11;;;;;;;0.60;0.40;;;12.90;99.90;;;;;;7389004;19;20599;-79
2023/10/28 04:32:38;;;;;;;1.77;0.50;;;12.90;99.90;;;;;;7390752;19;20137;-78
2023/10/28 04:35:05;;;;;;;1.60;0.60;;;12.90;99.90;;;;;;7387049;19;20149;-79
2023/10/28 04:37:32;;;;;;;0.43;0.20;;;12.80;99.90;;;;;;7387714;19;20139;-79
2023/10/28 04:39:58;;;;;;;0.30;0.30;;;12.90;99.90;;;;;;7389979;19;20138;-79
2023/10/28 04:42:23;;;;;;;0.77;0.50;;;12.90;99.90;;;;;;7386891;19;20139;-80
2023/10/28 04:44:49;;;;;;;0.40;0.38;;;12.80;99.90;;;;;;7388235;19;20174;-79
2023/10/28 04:47:15;;;;;;;0.67;0.30;;;12.80;99.90;;;;;;7379325;19;20142;-78
2023/10/28 04:49:41;;;;;;;1.47;0.40;;;12.70;99.90;;;;;;7390226;19;20613;-79
2023/10/28 04:52:10;;;;;;;0.30;0.30;;;12.80;99.90;;;;;;7381265;19;20134;-79
2023/10/28 04:54:38;;;;;;;0.40;0.30;;;12.90;99.90;;;;;;7387173;19;20206;-79
2023/10/28 04:57:04;;;;;;;0.30;0.30;;;12.80;99.90;;;;;;7381695;19;20529;-78
2023/10/28 04:59:30;;;;;;;0.98;0.40;;;12.80;99.90;;;;;;7383400;19;20160;-79
2023/10/28 05:01:56;;;;;;;0.10;0.10;;;12.60;99.90;;;;;;7383571;19;20130;-79
2023/10/28 05:04:26;;;;;;;0.20;0.20;;;12.70;99.90;;;;;;7380152;19;20147;-78
2023/10/28 05:06:53;;;;;;;0.53;0.40;;;12.40;99.90;;;;;;7383458;19;20138;-78
2023/10/28 05:09:20;;;;;;;0.20;0.20;;;12.50;99.90;;;;;;7380878;19;20142;-78
2023/10/28 05:11:50;;;;;;;0.30;0.30;;;12.50;99.90;;;;;;7387421;19;20151;-78
2023/10/28 05:14:16;;;;;;;0.37;0.37;;;12.60;99.90;;;;;;7380644;19;20758;-78
2023/10/28 05:16:42;;;;;;;0.20;0.20;;;12.50;99.90;;;;;;7385405;19;20131;-79
2023/10/28 05:19:08;;;;;;;0.20;0.20;;;12.50;99.90;;;;;;7386885;19;20189;-78
2023/10/28 05:21:34;;;;;;;0.30;0.30;;;12.60;99.90;;;;;;7389635;19;20135;-79
2023/10/28 05:24:00;;;;;;;0.47;0.37;;;12.40;99.90;;;;;;7386644;19;21188;-82
2023/10/28 05:26:26;;;;;;;0.20;0.20;;;12.20;99.90;;;;;;7382511;19;20159;-80
2023/10/28 05:28:54;;;;;;;0.50;0.30;;;12.10;99.90;;;;;;7388658;19;20154;-78
2023/10/28 05:31:20;;;;;;;0.27;0.20;;;12.20;99.90;;;;;;7385226;19;20215;-79
2023/10/28 05:33:46;;;;;;;0.60;0.40;;;12.40;99.90;;;;;;7383143;19;20150;-79
2023/10/28 05:36:12;;;;;;;0.30;0.30;;;12.20;99.90;;;;;;7382731;19;20127;-78
2023/10/28 05:38:38;;;;;;;0.35;0.35;;;12.20;99.90;;;;;;7386134;19;20606;-78
2023/10/28 05:41:03;;;;;;;0.70;0.40;;;12.30;99.90;;;;;;7391163;19;20138;-79
2023/10/28 05:43:30;;;;;;;0.40;0.40;;;12.20;99.90;;;;;;7395468;19;20198;-80
2023/10/28 05:45:56;;;;;;;0.30;0.30;;;12.40;99.90;;;;;;7387353;19;20748;-80
2023/10/28 05:48:22;;;;;;;0.93;0.50;;;12.50;99.90;;;;;;7395356;19;20129;-79
2023/10/28 05:50:48;;;;;;;0.30;0.30;;;12.60;99.90;;;;;;7390524;19;20202;-80
2023/10/28 05:53:14;;;;;;;0.43;0.43;;;12.50;99.90;;;;;;7392206;19;20139;-79
2023/10/28 05:55:40;;;;;;;0.47;0.47;;;12.60;99.90;;;;;;7382793;19;20163;-79
2023/10/28 05:58:06;;;;;;;0.20;0.20;;;12.60;99.90;;;;;;7391214;19;20618;-79
2023/10/28 06:00:33;;;;;;;0.43;0.30;;;12.60;99.90;;;;;;7392468;19;20138;-79
2023/10/28 06:02:58;;;;;;;0.47;0.40;;;12.70;99.90;;;;;;7395330;19;20162;-80
2023/10/28 06:05:25;;;;;;;0.30;0.30;;;12.50;99.90;;;;;;7395583;19;20206;-79
2023/10/28 06:07:51;;;;;;;0.20;0.20;;;12.50;99.90;;;;;;7391331;19;20137;-79
2023/10/28 06:10:17;;;;;;;0.30;0.30;;;12.30;99.90;;;;;;7385878;19;20217;-80
2023/10/28 06:12:42;;;;;;;0.40;0.40;;;12.30;99.90;;;;;;7395523;19;20138;-79
2023/10/28 06:15:14;;;;;;;0.97;0.40;;;12.30;99.90;;;;;;7388120;19;20146;-78
2023/10/28 06:17:39;;;;;;;0.43;0.43;;;12.20;99.90;;;;;;7393799;19;20159;-80
2023/10/28 06:20:06;;;;;;;1.67;0.60;;;12.10;99.90;;;;;;7390825;19;20182;-81
2023/10/28 06:22:33;;;;;;;2.60;1.70;;;12.10;99.90;;;;;;7389618;19;20167;-81
2023/10/28 06:24:59;;;;;;;0.40;0.40;;;12.20;99.90;;;;;;7393173;19;20149;-82
2023/10/28 06:27:24;;;;;;;1.00;0.90;;;12.10;99.90;;;;;;7394269;19;20138;-82
2023/10/28 06:29:50;;;;;;;2.20;1.60;;;12.20;99.90;;;;;;7388971;19;20145;-82
2023/10/28 06:32:16;;;;;;;1.83;0.60;;;12.20;99.90;;;;;;7394450;19;20166;-81
2023/10/28 06:34:41;;;;;;;0.93;0.70;;;12.20;99.90;;;;;;7393347;19;20210;-81
2023/10/28 06:37:07;;;;;;;1.10;0.67;;;12.20;99.90;;;;;;7394451;19;20181;-82
2023/10/28 06:39:34;;;;;;;0.80;0.75;;;12.20;99.90;;;;;;7393368;19;20158;-81
2023/10/28 06:42:01;;;;;;;1.00;0.30;;;12.30;99.90;;;;;;7391384;19;20214;-81
2023/10/28 06:44:27;;;;;;;0.30;0.30;;;12.40;99.90;;;;;;7394928;19;20222;-83
2023/10/28 06:46:53;;;;;;;0.53;0.40;;;12.50;99.90;;;;;;7393066;19;20239;-83
2023/10/28 06:49:19;;;;;;;0.73;0.40;;;12.60;99.90;;;;;;7389747;19;20127;-81
2023/10/28 06:51:45;;;;;;;0.57;0.45;;;12.60;99.90;;;;;;7392652;19;20165;-84
2023/10/28 06:54:11;;;;;;;0.70;0.33;;;12.50;99.90;;;;;;7390623;19;20755;-81
2023/10/28 06:56:37;;;;;;;0.30;0.30;;;12.50;99.90;;;;;;7384585;19;20153;-82
2023/10/28 06:59:02;;;;;;;1.60;0.40;;;12.40;99.90;;;;;;7382525;19;20571;-78
2023/10/28 07:01:28;;;;;;;1.50;0.73;;;12.40;99.90;;;;;;7386234;19;20138;-80
2023/10/28 07:03:54;;;;;;;0.20;0.20;;;12.60;99.90;;;;;;7389268;19;20142;-80
2023/10/28 07:06:20;;;;;;;2.35;0.40;;;12.80;99.90;;;;;;7392297;19;20166;-83
2023/10/28 07:08:46;;;;;;;2.80;0.50;;;12.90;99.90;;;;;;7386379;19;20206;-77
2023/10/28 07:11:13;;;;;;;0.80;0.60;;;12.90;99.90;;;;;;7389467;19;20143;-81
2023/10/28 07:13:38;;;;;;;0.47;0.40;;;13.10;99.90;;;;;;7387826;19;20522;-81
2023/10/28 07:16:05;;;;;;;0.73;0.40;;;13.10;99.90;;;;;;7385405;19;20650;-81
2023/10/28 07:18:32;;;;;;;0.33;0.33;;;13.20;99.90;;;;;;7391467;19;20556;-81
2023/10/28 07:20:58;;;;;;;0.63;0.33;;;13.20;99.90;;;;;;7383489;19;20154;-80
2023/10/28 07:23:28;;;;;;;0.40;0.30;;;13.20;99.90;;;;;;7390893;19;20160;-81
2023/10/28 07:25:54;;;;;;;0.40;0.40;;;13.40;99.90;;;;;;7391713;19;20133;-84
2023/10/28 07:28:20;;;;;;;0.75;0.40;;;13.30;99.90;;;;;;7391755;19;20201;-84
2023/10/28 07:30:50;;;;;;;0.30;0.30;;;13.30;99.90;;;;;;7383429;19;20141;-82
2023/10/28 07:33:19;;;;;;;0.50;0.30;;;13.40;99.90;;;;;;7392286;19;20134;-79
2023/10/28 07:35:50;;;;;;;0.47;0.43;;;13.10;99.90;;;;;;7382020;19;20587;-84
2023/10/28 07:38:17;;;;;;;0.77;0.40;;;12.90;99.90;;;;;;7393376;19;20203;-87
2023/10/28 07:40:47;;;;;;;2.33;0.50;;;13.00;99.90;;;;;;7395130;19;20122;-84
2023/10/28 07:43:19;;;;;;;0.30;0.30;;;13.10;99.90;;;;;;7395921;19;20202;-82
2023/10/28 07:45:48;;;;;;;0.30;0.30;;;12.90;99.90;;;;;;7392283;19;20171;-82
2023/10/28 07:48:14;;;;;;;0.70;0.38;;;13.00;99.90;;;;;;7395728;19;20130;-82
2023/10/28 07:50:42;;;;;;;0.30;0.30;;;13.10;99.90;;;;;;7392591;19;20170;-79
2023/10/28 07:53:08;;;;;;;0.40;0.40;;;13.00;99.90;;;;;;7393814;19;20135;-80
2023/10/28 07:55:35;;;;;;;0.80;0.80;;;13.20;99.90;;;;;;7391045;19;20168;-81
2023/10/28 07:58:01;;;;;;;0.40;0.40;;;13.20;99.90;;;;;;7392163;19;20162;-83
2023/10/28 08:00:27;;;;;;;0.80;0.33;;;13.30;99.90;;;;;;7392722;19;20587;-80
2023/10/28 08:02:53;;;;;;;1.37;0.97;;;13.50;99.90;;;;;;7391339;19;20158;-80
2023/10/28 08:05:19;;;;;;;0.40;0.40;;;13.60;99.90;;;;;;7389744;19;20154;-79
2023/10/28 08:07:50;;;;;;;0.80;0.43;;;13.50;99.90;;;;;;7391800;19;20155;-80
2023/10/28 08:10:22;;;;;;;0.40;0.40;;;13.40;99.90;;;;;;7392082;19;20166;-79
2023/10/28 08:12:53;;;;;;;0.43;0.35;;;13.50;99.90;;;;;;7394665;19;20127;-83
2023/10/28 08:15:24;;;;;;;0.32;0.30;;;13.50;99.90;;;;;;7390803;19;20142;-79
2023/10/28 08:17:53;;;;;;;0.20;0.20;;;13.40;99.90;;;;;;7392551;19;20137;-83
2023/10/28 08:20:19;;;;;;;0.20;0.20;;;13.30;99.90;;;;;;7389869;19;20773;-80
2023/10/28 08:22:45;;;;;;;0.35;0.35;;;13.40;99.90;;;;;;7393783;19;20163;-81
2023/10/28 08:25:15;;;;;;;1.50;0.30;;;13.30;99.90;;;;;;7389639;19;20142;-80
2023/10/28 08:27:43;;;;;;;0.55;0.40;;;13.40;99.90;;;;;;7393838;19;20218;-82
2023/10/28 08:30:09;;;;;;;0.57;0.38;;;13.40;99.90;;;;;;7392395;19;20139;-79
2023/10/28 08:32:38;;;;;;;0.38;0.32;;;13.40;99.90;;;;;;7391227;19;20145;-81
2023/10/28 08:35:06;;;;;;;0.32;0.30;;;13.50;99.90;;;;;;7392107;19;20189;-81
2023/10/28 08:37:32;;;;;;;0.30;0.30;;;13.60;99.90;;;;;;7393101;19;20161;-80
2023/10/28 08:39:58;;;;;;;1.00;0.55;;;13.80;99.90;;;;;;7392771;19;20222;-81
2023/10/28 08:42:25;;;;;;;2.33;1.02;;;13.90;99.90;;;;;;7391572;19;20596;-81
2023/10/28 08:44:52;;;;;;;0.77;0.60;;;14.00;99.90;;;;;;7391574;19;20142;-79
2023/10/28 08:47:23;;;;;;;0.47;0.43;;;14.10;99.90;;;;;;7391382;19;20119;-82
2023/10/28 08:49:52;;;;;;;0.52;0.52;;;14.20;99.90;;;;;;7392979;19;20592;-83
2023/10/28 08:52:21;;;;;;;0.38;0.35;;;14.20;99.90;;;;;;7391477;19;20155;-83
2023/10/28 08:54:47;;;;;;;1.17;0.65;;;14.10;99.90;;;;;;7391533;19;20147;-84
2023/10/28 08:57:15;;;;;;;1.38;0.57;;;14.00;99.90;;;;;;7391210;19;20181;-81
2023/10/28 08:59:41;;;;;;;0.82;0.50;;;13.90;99.90;;;;;;7390511;19;20146;-81
2023/10/28 09:02:12;;;;;;;0.40;0.40;;;14.10;99.90;;;;;;7391703;19;20465;-82
2023/10/28 09:04:38;;;;;;;0.75;0.70;;;14.20;99.90;;;;;;7392152;19;20595;-82
2023/10/28 09:07:07;;;;;;;1.27;0.30;;;14.20;99.90;;;;;;7393254;19;20639;-82
2023/10/28 09:09:36;;;;;;;0.65;0.40;;;14.10;99.90;;;;;;7392823;19;20157;-83
2023/10/28 09:12:07;;;;;;;0.70;0.40;;;14.00;99.90;;;;;;7393889;19;20141;-82
2023/10/28 09:14:33;;;;;;;0.50;0.32;;;14.20;99.90;;;;;;7391249;19;20144;-81
2023/10/28 09:17:02;;;;;;;0.30;0.30;;;14.30;99.90;;;;;;7399304;19;20205;-82
2023/10/28 09:19:30;;;;;;;0.30;0.30;;;14.40;99.90;;;;;;7396081;19;20598;-84
2023/10/28 09:22:00;;;;;;;0.30;0.30;;;14.60;99.90;;;;;;7396944;19;20152;-79
2023/10/28 09:24:26;;;;;;;0.65;0.45;;;14.60;99.90;;;;;;7396773;19;20150;-78
2023/10/28 09:26:54;;;;;;;0.30;0.30;;;14.80;99.90;;;;;;7394234;19;20197;-77
2023/10/28 09:29:25;;;;;;;0.30;0.30;;;14.80;99.90;;;;;;7386740;19;20138;-76
2023/10/28 09:31:51;;;;;;;0.88;0.65;;;14.80;99.90;;;;;;7389865;19;20146;-77
2023/10/28 09:34:17;;;;;;;2.13;0.88;;;14.90;99.90;;;;;;7390038;19;20142;-77
2023/10/28 09:36:44;;;;;;;0.50;0.50;;;15.00;99.90;;;;;;7392202;19;20230;-77
2023/10/28 09:39:13;;;;;;;0.30;0.30;;;14.80;99.90;;;;;;7396742;19;20169;-77
2023/10/28 09:41:43;;;;;;;1.23;0.60;;;14.80;99.90;;;;;;7396533;19;20130;-77
2023/10/28 09:44:10;;;;;;;0.30;0.30;;;15.00;99.90;;;;;;7396737;19;20214;-78
2023/10/28 09:46:36;;;;;;;1.02;0.43;;;15.10;99.90;;;;;;7396458;19;20134;-79
2023/10/28 09:49:07;;;;;;;0.55;0.55;;;15.20;99.90;;;;;;7396398;19;20574;-79
2023/10/28 09:51:37;;;;;;;0.20;0.20;;;15.20;99.90;;;;;;7394988;19;20139;-78
2023/10/28 09:54:11;;;;;;;0.52;0.52;;;15.10;99.90;;;;;;7395281;19;20134;-80
2023/10/28 09:56:43;;;;;;;0.30;0.30;;;15.10;99.90;;;;;;7396037;19;20744;-78
2023/10/28 09:59:27;;;;;;;0.60;0.50;;;15.10;99.90;;;;;;7395278;19;20610;-77
2023/10/28 10:02:14;;;;;;;0.32;0.32;;;15.30;99.90;;;;;;7393624;19;20147;-79
2023/10/28 10:04:49;;;;;;;0.38;0.38;;;15.40;99.90;;;;;;7394993;19;20155;-78
2023/10/28 10:07:16;;;;;;;0.40;0.40;;;15.40;99.90;;;;;;7394002;19;20130;-78
2023/10/28 10:09:48;;;;;;;2.35;0.43;;;15.50;99.90;;;;;;7396491;19;20169;-77
2023/10/28 10:12:15;;;;;;;1.67;0.65;;;15.60;99.90;;;;;;7392392;19;20155;-77
2023/10/28 10:14:45;;;;;;;0.75;0.60;;;15.90;99.90;;;;;;7394731;19;20153;-76
2023/10/28 10:17:28;;;;;;;0.20;0.20;;;16.00;99.90;;;;;;7392974;19;20157;-82
2023/10/28 10:19:58;;;;;;;2.45;0.57;;;16.10;99.90;;;;;;7393947;19;20544;-81
2023/10/28 10:22:31;;;;;;;0.20;0.20;;;16.00;99.90;;;;;;7396064;19;20134;-83
2023/10/28 10:24:58;;;;;;;0.30;0.30;;;16.00;99.90;;;;;;7392191;19;20532;-82
2023/10/28 10:27:44;;;;;;;0.38;0.38;;;16.10;99.90;;;;;;7390413;19;20142;-82
2023/10/28 10:30:10;;;;;;;0.40;0.40;;;16.00;99.90;;;;;;7394900;19;20130;-78
2023/10/28 10:32:50;;;;;;;0.28;0.28;;;16.00;99.90;;;;;;7395027;19;20559;-79
2023/10/28 10:35:32;;;;;;;0.47;0.40;;;15.90;99.90;;;;;;7391418;19;20159;-80
2023/10/28 10:38:10;;;;;;;1.58;0.43;;;16.00;99.90;;;;;;7393971;19;20558;-80
2023/10/28 10:40:42;;;;;;;0.20;0.20;;;15.90;99.90;;;;;;7396464;19;20153;-81
2023/10/28 10:43:09;;;;;;;0.85;0.35;;;16.00;99.90;;;;;;7395564;19;20210;-80
2023/10/28 10:45:36;;;;;;;0.30;0.30;;;16.10;99.90;;;;;;7394932;19;20504;-82
2023/10/28 10:48:09;;;;;;;0.77;0.30;;;16.10;99.90;;;;;;7394456;19;20605;-80
2023/10/28 10:50:35;;;;;;;0.55;0.50;;;16.30;99.90;;;;;;7392987;19;20257;-80
2023/10/28 10:53:05;;;;;;;0.20;0.20;;;16.60;99.90;;;;;;7390776;19;20146;-80
2023/10/28 10:55:32;;;;;;;0.30;0.30;;;16.70;99.90;;;;;;7389002;19;20131;-79
2023/10/28 10:57:58;;;;;;;0.15;0.15;;;16.70;99.90;;;;;;7393718;19;20175;-81
2023/10/28 11:00:25;;;;;;;1.23;0.70;;;16.90;99.90;;;;;;7393514;19;20138;-79
2023/10/28 11:02:58;;;;;;;0.30;0.22;;;17.00;99.90;;;;;;7395206;19;20130;-80
2023/10/28 11:05:29;;;;;;;0.38;0.38;;;16.70;99.90;;;;;;7390894;19;20150;-79
2023/10/28 11:07:54;;;;;;;1.45;0.60;;;16.50;99.90;;;;;;7393355;19;20221;-81
2023/10/28 11:10:20;;;;;;;0.20;0.20;;;16.20;99.90;;;;;;7392864;19;20136;-79
2023/10/28 11:12:46;;;;;;;0.73;0.47;;;16.00;99.90;;;;;;7392438;19;20577;-78
2023/10/28 11:15:12;;;;;;;0.40;0.40;;;16.00;99.90;;;;;;7390688;19;20138;-81
2023/10/28 11:17:39;;;;;;;0.80;0.52;;;15.80;99.90;;;;;;7392403;19;20863;-81
2023/10/28 11:20:10;;;;;;;1.10;0.50;;;15.70;99.90;;;;;;7393031;19;20284;-79
2023/10/28 11:22:37;;;;;;;1.20;0.57;;;15.70;99.90;;;;;;7394005;19;20182;-81
2023/10/28 11:25:04;;;;;;;0.50;0.43;;;15.60;99.90;;;;;;7393407;19;20206;-81
2023/10/28 11:27:31;;;;;;;0.47;0.47;;;15.60;99.90;;;;;;7393734;19;20138;-80
2023/10/28 11:29:59;;;;;;;1.40;0.40;;;15.50;99.90;;;;;;7393365;19;20155;-80
2023/10/28 11:32:27;;;;;;;0.52;0.47;;;15.60;99.90;;;;;;7393609;19;20634;-80
2023/10/28 11:34:57;;;;;;;0.38;0.32;;;15.70;99.90;;;;;;7391775;19;20134;-79
2023/10/28 11:37:23;;;;;;;0.50;0.47;;;15.70;99.90;;;;;;7390544;19;20142;-79
2023/10/28 11:39:49;;;;;;;1.73;0.70;;;15.70;99.90;;;;;;7393545;19;20851;-80
2023/10/28 11:42:17;;;;;;;0.55;0.40;;;15.70;99.90;;;;;;7392365;19;20138;-80
2023/10/28 11:44:49;;;;;;;0.70;0.50;;;15.60;99.90;;;;;;7392845;19;20591;-78
2023/10/28 11:47:15;;;;;;;0.75;0.40;;;15.60;99.90;;;;;;7389531;19;20202;-78
2023/10/28 11:49:41;;;;;;;2.40;0.52;;;15.60;99.90;;;;;;7391370;19;20170;-80
2023/10/28 11:52:09;;;;;;;0.38;0.38;;;15.60;99.90;;;;;;7393981;19;20170;-79
2023/10/28 11:54:35;;;;;;;0.40;0.40;;;15.70;99.90;;;;;;7390281;19;20158;-79
2023/10/28 11:57:01;;;;;;;0.77;0.60;;;15.80;99.90;;;;;;7392107;19;20486;-79
2023/10/28 11:59:26;;;;;;;0.50;0.50;;;15.80;99.90;;;;;;7392893;19;20160;-79
2023/10/28 12:01:53;;;;;;;1.23;0.55;;;15.80;99.90;;;;;;7393400;19;20141;-81
2023/10/28 12:04:23;;;;;;;0.50;0.40;;;15.90;99.90;;;;;;7392852;19;20454;-80
2023/10/28 12:06:49;;;;;;;3.35;0.80;;;15.70;99.90;;;;;;7391367;19;20150;-80
2023/10/28 12:09:16;;;;;;;1.23;0.60;;;15.60;99.90;;;;;;7392644;19;20146;-78
2023/10/28 12:11:42;;;;;;;0.52;0.45;;;15.60;99.90;;;;;;7393403;19;20138;-79
2023/10/28 12:14:08;;;;;;;0.68;0.50;;;15.70;99.90;;;;;;7392117;19;20755;-80
2023/10/28 12:16:39;;;;;;;0.40;0.30;;;15.70;99.90;;;;;;7389631;19;20146;-78
2023/10/28 12:19:05;;;;;;;1.20;0.40;;;15.60;99.90;;;;;;7390239;19;20261;-79
2023/10/28 12:21:35;;;;;;;0.28;0.25;;;15.50;99.90;;;;;;7392314;19;20206;-78
2023/10/28 12:24:05;;;;;;;1.60;0.82;;;15.40;99.90;;;;;;7391193;19;20164;-80
2023/10/28 12:26:31;;;;;;;1.92;0.80;;;15.40;99.90;;;;;;7390023;19;20149;-78
2023/10/28 12:28:57;;;;;;;0.57;0.50;;;15.40;99.90;;;;;;7389681;19;20665;-79
2023/10/28 12:31:24;;;;;;;3.08;0.75;;;15.70;99.90;;;;;;7390464;19;20154;-81
2023/10/28 12:33:51;;;;;;;1.08;0.75;;;15.70;99.90;;;;;;7392855;19;20179;-81
2023/10/28 12:36:18;;;;;;;0.52;0.50;;;15.80;99.90;;;;;;7393068;19;20149;-81
2023/10/28 12:38:44;;;;;;;1.52;0.68;;;15.90;99.90;;;;;;7392984;19;20583;-82
2023/10/28 12:41:11;;;;;;;1.45;0.60;;;16.10;99.90;;;;;;7390738;19;20218;-80
2023/10/28 12:43:37;;;;;;;0.40;0.35;;;16.10;99.90;;;;;;7391525;19;20158;-80
2023/10/28 12:46:05;;;;;;;0.43;0.40;;;16.00;99.90;;;;;;7391490;19;20146;-79
2023/10/28 12:48:31;;;;;;;1.45;0.50;;;16.10;99.90;;;;;;7392119;19;20675;-80